sensor_id;sensor_type;location;lat;lon;timestamp;pressure;altitude;pressure_sealevel;temperature;humidity
60920;BME280;59039;52.108;19.942;2023-05-10T00:01:56;101151.23;;;9.61;53.85
60920;BME280;59039;52.108;19.942;2023-05-10T00:04:21;101148.23;;;9.58;54.38
60920;BME280;59039;52.108;19.942;2023-05-10T00:06:46;101148.92;;;9.56;54.28
60920;BME280;59039;52.108;19.942;2023-05-10T00:09:12;101149.14;;;9.56;54.43
60920;BME280;59039;52.108;19.942;2023-05-10T00:11:37;101145.88;;;9.54;54.46
60920;BME280;59039;52.108;19.942;2023-05-10T00:14:02;101145.17;;;9.52;54.22
60920;BME280;59039;52.108;19.942;2023-05-10T00:16:28;101145.30;;;9.46;54.16
60920;BME280;59039;52.108;19.942;2023-05-10T00:18:53;101147.13;;;9.44;54.71
60920;BME280;59039;52.108;19.942;2023-05-10T00:21:19;101145.10;;;9.39;53.68
60920;BME280;59039;52.108;19.942;2023-05-10T00:23:44;101143.48;;;9.35;54.34
60920;BME280;59039;52.108;19.942;2023-05-10T00:26:09;101141.22;;;9.34;54.79
60920;BME280;59039;52.108;19.942;2023-05-10T00:28:35;101134.05;;;9.31;54.50
60920;BME280;59039;52.108;19.942;2023-05-10T00:31:00;101133.31;;;9.27;54.05
60920;BME280;59039;52.108;19.942;2023-05-10T00:33:25;101137.86;;;9.25;54.26
60920;BME280;59039;52.108;19.942;2023-05-10T00:35:51;101135.17;;;9.22;54.93
60920;BME280;59039;52.108;19.942;2023-05-10T00:38:16;101135.22;;;9.17;54.79
60920;BME280;59039;52.108;19.942;2023-05-10T00:40:41;101133.05;;;9.15;55.02
60920;BME280;59039;52.108;19.942;2023-05-10T00:43:07;101131.67;;;9.14;54.71
60920;BME280;59039;52.108;19.942;2023-05-10T00:45:32;101136.38;;;9.10;53.48
60920;BME280;59039;52.108;19.942;2023-05-10T00:47:59;101134.70;;;9.08;53.83
60920;BME280;59039;52.108;19.942;2023-05-10T00:50:26;101135.59;;;9.06;54.47
60920;BME280;59039;52.108;19.942;2023-05-10T00:52:51;101133.66;;;9.03;55.29
60920;BME280;59039;52.108;19.942;2023-05-10T00:55:17;101133.47;;;8.99;54.74
60920;BME280;59039;52.108;19.942;2023-05-10T00:57:43;101132.88;;;8.97;54.80
60920;BME280;59039;52.108;19.942;2023-05-10T01:00:09;101131.50;;;8.96;55.31
60920;BME280;59039;52.108;19.942;2023-05-10T01:02:35;101135.30;;;8.94;54.98
60920;BME280;59039;52.108;19.942;2023-05-10T01:05:02;101133.67;;;8.88;55.18
60920;BME280;59039;52.108;19.942;2023-05-10T01:07:28;101130.48;;;8.81;54.60
60920;BME280;59039;52.108;19.942;2023-05-10T01:09:53;101130.31;;;8.78;55.68
60920;BME280;59039;52.108;19.942;2023-05-10T01:12:18;101127.36;;;8.74;55.51
60920;BME280;59039;52.108;19.942;2023-05-10T01:14:44;101124.80;;;8.68;55.89
60920;BME280;59039;52.108;19.942;2023-05-10T01:17:10;101123.54;;;8.66;55.77
60920;BME280;59039;52.108;19.942;2023-05-10T01:19:37;101120.42;;;8.62;56.14
60920;BME280;59039;52.108;19.942;2023-05-10T01:24:56;101118.83;;;8.57;55.12
60920;BME280;59039;52.108;19.942;2023-05-10T01:31:03;101123.13;;;8.47;55.49
60920;BME280;59039;52.108;19.942;2023-05-10T01:39:17;101121.80;;;8.25;54.56
60920;BME280;59039;52.108;19.942;2023-05-10T01:41:55;101122.45;;;8.23;56.17
60920;BME280;59039;52.108;19.942;2023-05-10T01:44:34;101126.83;;;8.20;55.86
60920;BME280;59039;52.108;19.942;2023-05-10T01:47:31;101127.80;;;8.15;56.54
60920;BME280;59039;52.108;19.942;2023-05-10T01:50:02;101123.00;;;8.12;55.58
60920;BME280;59039;52.108;19.942;2023-05-10T01:52:41;101121.55;;;8.12;56.86
60920;BME280;59039;52.108;19.942;2023-05-10T01:55:10;101119.91;;;8.10;56.83
60920;BME280;59039;52.108;19.942;2023-05-10T01:57:37;101120.65;;;8.07;57.07
60920;BME280;59039;52.108;19.942;2023-05-10T02:00:04;101117.01;;;8.01;57.07
60920;BME280;59039;52.108;19.942;2023-05-10T02:02:40;101116.77;;;7.97;56.92
60920;BME280;59039;52.108;19.942;2023-05-10T02:05:08;101119.73;;;7.93;57.54
60920;BME280;59039;52.108;19.942;2023-05-10T02:07:35;101118.62;;;7.91;57.19
60920;BME280;59039;52.108;19.942;2023-05-10T02:10:04;101114.95;;;7.90;56.62
60920;BME280;59039;52.108;19.942;2023-05-10T02:12:31;101117.75;;;7.89;56.65
60920;BME280;59039;52.108;19.942;2023-05-10T02:14:59;101114.70;;;7.89;57.73
60920;BME280;59039;52.108;19.942;2023-05-10T02:17:27;101109.44;;;7.87;57.57
60920;BME280;59039;52.108;19.942;2023-05-10T02:19:53;101108.05;;;7.84;58.13
60920;BME280;59039;52.108;19.942;2023-05-10T02:22:21;101108.92;;;7.80;57.78
60920;BME280;59039;52.108;19.942;2023-05-10T02:24:47;101103.03;;;7.77;57.30
60920;BME280;59039;52.108;19.942;2023-05-10T02:27:17;101101.40;;;7.77;58.15
60920;BME280;59039;52.108;19.942;2023-05-10T02:29:44;101100.48;;;7.74;58.04
60920;BME280;59039;52.108;19.942;2023-05-10T02:32:11;101097.61;;;7.72;58.53
60920;BME280;59039;52.108;19.942;2023-05-10T02:34:38;101092.73;;;7.70;57.61
60920;BME280;59039;52.108;19.942;2023-05-10T02:37:04;101096.27;;;7.66;58.08
60920;BME280;59039;52.108;19.942;2023-05-10T02:39:31;101096.29;;;7.63;58.67
60920;BME280;59039;52.108;19.942;2023-05-10T02:41:58;101093.90;;;7.62;58.37
60920;BME280;59039;52.108;19.942;2023-05-10T02:44:23;101091.77;;;7.59;58.75
60920;BME280;59039;52.108;19.942;2023-05-10T02:46:52;101089.33;;;7.56;58.46
60920;BME280;59039;52.108;19.942;2023-05-10T02:49:18;101089.89;;;7.55;59.06
60920;BME280;59039;52.108;19.942;2023-05-10T02:51:56;101086.92;;;7.54;58.96
60920;BME280;59039;52.108;19.942;2023-05-10T02:54:33;101086.23;;;7.51;58.60
60920;BME280;59039;52.108;19.942;2023-05-10T02:57:04;101088.66;;;7.48;58.79
60920;BME280;59039;52.108;19.942;2023-05-10T02:59:31;101087.35;;;7.44;59.12
60920;BME280;59039;52.108;19.942;2023-05-10T03:01:56;101091.35;;;7.41;59.53
60920;BME280;59039;52.108;19.942;2023-05-10T03:04:22;101092.98;;;7.38;59.54
60920;BME280;59039;52.108;19.942;2023-05-10T03:06:47;101093.41;;;7.33;59.66
60920;BME280;59039;52.108;19.942;2023-05-10T03:09:13;101092.73;;;7.32;59.69
60920;BME280;59039;52.108;19.942;2023-05-10T03:17:35;101097.80;;;7.22;59.56
60920;BME280;59039;52.108;19.942;2023-05-10T03:20:10;101097.78;;;7.20;58.80
60920;BME280;59039;52.108;19.942;2023-05-10T03:22:45;101101.23;;;7.20;59.67
60920;BME280;59039;52.108;19.942;2023-05-10T03:25:12;101098.07;;;7.19;60.15
60920;BME280;59039;52.108;19.942;2023-05-10T03:27:49;101094.33;;;7.16;59.75
60920;BME280;59039;52.108;19.942;2023-05-10T03:30:16;101094.30;;;7.14;59.72
60920;BME280;59039;52.108;19.942;2023-05-10T03:32:41;101096.30;;;7.16;59.81
60920;BME280;59039;52.108;19.942;2023-05-10T03:35:08;101094.84;;;7.19;60.32
60920;BME280;59039;52.108;19.942;2023-05-10T03:37:33;101096.68;;;7.25;60.00
60920;BME280;59039;52.108;19.942;2023-05-10T03:39:59;101095.48;;;7.36;60.55
60920;BME280;59039;52.108;19.942;2023-05-10T03:42:24;101095.83;;;7.48;60.28
60920;BME280;59039;52.108;19.942;2023-05-10T03:44:49;101098.30;;;7.61;60.20
60920;BME280;59039;52.108;19.942;2023-05-10T03:47:15;101096.98;;;7.75;59.71
60920;BME280;59039;52.108;19.942;2023-05-10T03:49:40;101097.36;;;7.89;59.34
60920;BME280;59039;52.108;19.942;2023-05-10T03:52:05;101091.65;;;8.02;59.31
60920;BME280;59039;52.108;19.942;2023-05-10T03:54:31;101090.00;;;8.16;59.04
60920;BME280;59039;52.108;19.942;2023-05-10T03:56:56;101089.91;;;8.33;59.31
60920;BME280;59039;52.108;19.942;2023-05-10T03:59:31;101091.25;;;8.52;57.68
60920;BME280;59039;52.108;19.942;2023-05-10T04:01:56;101093.02;;;8.66;57.88
60920;BME280;59039;52.108;19.942;2023-05-10T04:04:22;101091.90;;;8.77;57.79
60920;BME280;59039;52.108;19.942;2023-05-10T04:06:47;101093.86;;;8.89;57.31
60920;BME280;59039;52.108;19.942;2023-05-10T04:09:12;101095.41;;;9.03;56.98
60920;BME280;59039;52.108;19.942;2023-05-10T04:11:41;101095.34;;;9.14;55.85
60920;BME280;59039;52.108;19.942;2023-05-10T04:14:06;101094.26;;;9.25;57.05
60920;BME280;59039;52.108;19.942;2023-05-10T04:16:31;101096.63;;;9.40;56.92
60920;BME280;59039;52.108;19.942;2023-05-10T04:18:56;101090.14;;;9.54;56.00
60920;BME280;59039;52.108;19.942;2023-05-10T04:21:22;101088.48;;;9.67;56.53
60920;BME280;59039;52.108;19.942;2023-05-10T04:23:47;101083.48;;;9.79;56.03
60920;BME280;59039;52.108;19.942;2023-05-10T04:26:13;101083.11;;;9.91;56.00
60920;BME280;59039;52.108;19.942;2023-05-10T04:28:41;101077.14;;;10.02;55.17
60920;BME280;59039;52.108;19.942;2023-05-10T04:31:10;101076.14;;;10.11;55.63
60920;BME280;59039;52.108;19.942;2023-05-10T04:33:36;101073.91;;;10.24;54.84
60920;BME280;59039;52.108;19.942;2023-05-10T04:36:02;101077.11;;;10.35;54.59
60920;BME280;59039;52.108;19.942;2023-05-10T04:38:27;101076.63;;;10.49;54.97
60920;BME280;59039;52.108;19.942;2023-05-10T04:40:53;101077.92;;;10.60;54.63
60920;BME280;59039;52.108;19.942;2023-05-10T04:43:19;101076.73;;;10.70;54.73
60920;BME280;59039;52.108;19.942;2023-05-10T04:45:44;101077.77;;;10.82;55.17
60920;BME280;59039;52.108;19.942;2023-05-10T04:48:09;101076.95;;;10.97;54.79
60920;BME280;59039;52.108;19.942;2023-05-10T04:50:35;101077.00;;;11.10;53.99
60920;BME280;59039;52.108;19.942;2023-05-10T04:53:00;101077.27;;;11.21;54.06
60920;BME280;59039;52.108;19.942;2023-05-10T04:55:26;101077.80;;;11.33;54.31
60920;BME280;59039;52.108;19.942;2023-05-10T04:57:51;101073.10;;;11.46;53.52
60920;BME280;59039;52.108;19.942;2023-05-10T05:00:17;101075.55;;;11.59;53.53
60920;BME280;59039;52.108;19.942;2023-05-10T05:02:43;101074.42;;;11.72;52.51
60920;BME280;59039;52.108;19.942;2023-05-10T05:05:09;101074.05;;;11.84;51.70
60920;BME280;59039;52.108;19.942;2023-05-10T05:07:34;101073.76;;;11.97;50.97
60920;BME280;59039;52.108;19.942;2023-05-10T05:10:03;101069.60;;;12.14;52.64
60920;BME280;59039;52.108;19.942;2023-05-10T05:12:28;101064.73;;;12.28;50.62
60920;BME280;59039;52.108;19.942;2023-05-10T05:14:53;101067.20;;;12.38;51.19
60920;BME280;59039;52.108;19.942;2023-05-10T05:17:19;101063.40;;;12.47;51.04
60920;BME280;59039;52.108;19.942;2023-05-10T05:19:44;101063.35;;;12.57;50.93
60920;BME280;59039;52.108;19.942;2023-05-10T05:22:09;101065.20;;;12.69;50.74
60920;BME280;59039;52.108;19.942;2023-05-10T05:24:35;101066.51;;;12.84;50.82
60920;BME280;59039;52.108;19.942;2023-05-10T05:27:01;101066.02;;;12.98;48.93
60920;BME280;59039;52.108;19.942;2023-05-10T05:29:26;101061.02;;;13.04;50.85
60920;BME280;59039;52.108;19.942;2023-05-10T05:31:52;101063.32;;;13.13;49.94
60920;BME280;59039;52.108;19.942;2023-05-10T05:34:17;101062.54;;;13.27;50.02
60920;BME280;59039;52.108;19.942;2023-05-10T05:36:42;101058.61;;;13.40;49.59
60920;BME280;59039;52.108;19.942;2023-05-10T05:39:08;101056.54;;;13.55;48.43
60920;BME280;59039;52.108;19.942;2023-05-10T05:41:33;101049.34;;;13.69;48.10
60920;BME280;59039;52.108;19.942;2023-05-10T05:43:58;101050.89;;;13.76;48.22
60920;BME280;59039;52.108;19.942;2023-05-10T05:46:23;101050.50;;;13.84;45.80
60920;BME280;59039;52.108;19.942;2023-05-10T05:48:49;101052.36;;;13.83;47.07
60920;BME280;59039;52.108;19.942;2023-05-10T05:51:14;101053.58;;;13.90;48.73
60920;BME280;59039;52.108;19.942;2023-05-10T05:53:39;101049.63;;;14.02;46.69
60920;BME280;59039;52.108;19.942;2023-05-10T05:56:05;101055.55;;;14.10;49.41
60920;BME280;59039;52.108;19.942;2023-05-10T05:58:30;101050.98;;;14.13;49.89
60920;BME280;59039;52.108;19.942;2023-05-10T06:00:55;101050.60;;;14.20;48.70
60920;BME280;59039;52.108;19.942;2023-05-10T06:03:21;101055.72;;;14.24;49.11
60920;BME280;59039;52.108;19.942;2023-05-10T06:05:46;101050.32;;;14.32;50.41
60920;BME280;59039;52.108;19.942;2023-05-10T06:08:12;101050.08;;;14.46;49.71
60920;BME280;59039;52.108;19.942;2023-05-10T06:10:37;101048.12;;;14.57;48.62
60920;BME280;59039;52.108;19.942;2023-05-10T06:13:02;101044.64;;;14.68;49.10
60920;BME280;59039;52.108;19.942;2023-05-10T06:15:40;101044.38;;;14.84;49.06
60920;BME280;59039;52.108;19.942;2023-05-10T06:18:05;101044.95;;;15.02;48.73
60920;BME280;59039;52.108;19.942;2023-05-10T06:20:31;101040.80;;;15.15;49.58
60920;BME280;59039;52.108;19.942;2023-05-10T06:23:06;101045.47;;;15.27;47.34
60920;BME280;59039;52.108;19.942;2023-05-10T06:25:31;101043.62;;;15.34;46.51
60920;BME280;59039;52.108;19.942;2023-05-10T06:27:56;101036.29;;;15.39;47.84
60920;BME280;59039;52.108;19.942;2023-05-10T06:30:22;101036.84;;;15.49;45.76
60920;BME280;59039;52.108;19.942;2023-05-10T06:32:53;101037.90;;;15.54;46.90
60920;BME280;59039;52.108;19.942;2023-05-10T06:35:28;101035.70;;;15.64;47.06
60920;BME280;59039;52.108;19.942;2023-05-10T06:37:53;101034.28;;;15.74;47.49
60920;BME280;59039;52.108;19.942;2023-05-10T06:40:19;101041.32;;;15.87;46.13
60920;BME280;59039;52.108;19.942;2023-05-10T06:42:44;101037.02;;;15.91;44.44
60920;BME280;59039;52.108;19.942;2023-05-10T06:45:13;101032.54;;;15.89;43.04
60920;BME280;59039;52.108;19.942;2023-05-10T06:47:41;101032.04;;;15.85;41.15
60920;BME280;59039;52.108;19.942;2023-05-10T06:50:08;101030.50;;;15.86;40.50
60920;BME280;59039;52.108;19.942;2023-05-10T06:52:54;101035.46;;;15.85;39.60
60920;BME280;59039;52.108;19.942;2023-05-10T06:55:19;101034.60;;;15.85;39.05
60920;BME280;59039;52.108;19.942;2023-05-10T06:57:44;101039.31;;;15.91;39.37
60920;BME280;59039;52.108;19.942;2023-05-10T07:00:10;101041.14;;;15.94;39.45
60920;BME280;59039;52.108;19.942;2023-05-10T07:02:35;101040.20;;;16.02;39.85
60920;BME280;59039;52.108;19.942;2023-05-10T07:05:01;101036.05;;;16.07;38.56
60920;BME280;59039;52.108;19.942;2023-05-10T07:07:27;101036.02;;;16.11;36.97
60920;BME280;59039;52.108;19.942;2023-05-10T07:09:52;101040.21;;;16.18;38.10
60920;BME280;59039;52.108;19.942;2023-05-10T07:12:17;101040.65;;;16.20;38.44
60920;BME280;59039;52.108;19.942;2023-05-10T07:14:43;101041.62;;;16.28;38.58
60920;BME280;59039;52.108;19.942;2023-05-10T07:17:08;101043.52;;;16.32;39.27
60920;BME280;59039;52.108;19.942;2023-05-10T07:19:34;101044.63;;;16.35;39.73
60920;BME280;59039;52.108;19.942;2023-05-10T07:21:59;101047.27;;;16.39;39.51
60920;BME280;59039;52.108;19.942;2023-05-10T07:24:24;101041.96;;;16.44;39.56
60920;BME280;59039;52.108;19.942;2023-05-10T07:26:50;101041.79;;;16.50;38.75
60920;BME280;59039;52.108;19.942;2023-05-10T07:29:15;101040.97;;;16.51;40.20
60920;BME280;59039;52.108;19.942;2023-05-10T07:31:43;101045.84;;;16.56;38.22
60920;BME280;59039;52.108;19.942;2023-05-10T07:34:09;101048.02;;;16.61;38.22
60920;BME280;59039;52.108;19.942;2023-05-10T07:36:34;101047.37;;;16.69;39.35
60920;BME280;59039;52.108;19.942;2023-05-10T07:39:00;101049.41;;;16.77;39.07
60920;BME280;59039;52.108;19.942;2023-05-10T07:41:25;101048.98;;;16.81;39.55
60920;BME280;59039;52.108;19.942;2023-05-10T07:43:50;101044.60;;;16.86;38.52
60920;BME280;59039;52.108;19.942;2023-05-10T07:46:16;101046.52;;;16.89;38.52
60920;BME280;59039;52.108;19.942;2023-05-10T07:48:41;101044.17;;;16.94;37.36
60920;BME280;59039;52.108;19.942;2023-05-10T07:51:06;101043.13;;;16.95;37.20
60920;BME280;59039;52.108;19.942;2023-05-10T07:53:37;101045.38;;;16.89;37.01
60920;BME280;59039;52.108;19.942;2023-05-10T07:56:21;101044.07;;;16.87;36.19
60920;BME280;59039;52.108;19.942;2023-05-10T07:58:55;101044.02;;;16.84;36.55
60920;BME280;59039;52.108;19.942;2023-05-10T08:01:21;101044.60;;;16.84;37.34
60920;BME280;59039;52.108;19.942;2023-05-10T08:03:46;101044.84;;;16.88;37.93
60920;BME280;59039;52.108;19.942;2023-05-10T08:06:11;101044.54;;;16.96;38.12
60920;BME280;59039;52.108;19.942;2023-05-10T08:08:37;101039.73;;;17.01;37.85
60920;BME280;59039;52.108;19.942;2023-05-10T08:11:05;101046.83;;;17.06;36.82
60920;BME280;59039;52.108;19.942;2023-05-10T08:13:34;101037.69;;;17.04;35.44
60920;BME280;59039;52.108;19.942;2023-05-10T08:16:01;101038.83;;;17.00;35.56
60920;BME280;59039;52.108;19.942;2023-05-10T08:18:26;101042.45;;;16.98;35.96
60920;BME280;59039;52.108;19.942;2023-05-10T08:20:52;101043.56;;;17.01;36.97
60920;BME280;59039;52.108;19.942;2023-05-10T08:23:17;101045.79;;;17.02;35.85
60920;BME280;59039;52.108;19.942;2023-05-10T08:25:42;101040.16;;;16.94;36.53
60920;BME280;59039;52.108;19.942;2023-05-10T08:28:08;101039.55;;;16.98;36.14
60920;BME280;59039;52.108;19.942;2023-05-10T08:30:33;101035.25;;;16.98;35.19
60920;BME280;59039;52.108;19.942;2023-05-10T08:32:58;101030.83;;;17.02;36.54
60920;BME280;59039;52.108;19.942;2023-05-10T08:35:23;101036.31;;;17.08;35.92
60920;BME280;59039;52.108;19.942;2023-05-10T08:37:49;101034.72;;;17.10;36.20
60920;BME280;59039;52.108;19.942;2023-05-10T08:40:15;101033.89;;;17.11;36.12
60920;BME280;59039;52.108;19.942;2023-05-10T08:42:43;101032.06;;;17.11;36.11
60920;BME280;59039;52.108;19.942;2023-05-10T08:45:13;101029.13;;;17.10;36.56
60920;BME280;59039;52.108;19.942;2023-05-10T08:47:38;101030.78;;;17.10;36.64
60920;BME280;59039;52.108;19.942;2023-05-10T08:50:05;101026.09;;;17.12;38.14
60920;BME280;59039;52.108;19.942;2023-05-10T08:52:32;101026.83;;;17.11;37.37
60920;BME280;59039;52.108;19.942;2023-05-10T08:54:59;101027.46;;;17.11;37.53
60920;BME280;59039;52.108;19.942;2023-05-10T08:57:25;101027.48;;;17.15;37.33
60920;BME280;59039;52.108;19.942;2023-05-10T08:59:50;101023.91;;;17.14;34.78
60920;BME280;59039;52.108;19.942;2023-05-10T09:02:16;101024.13;;;17.09;35.02
60920;BME280;59039;52.108;19.942;2023-05-10T09:04:43;101022.11;;;17.03;34.15
60920;BME280;59039;52.108;19.942;2023-05-10T09:07:08;101022.48;;;17.00;35.56
60920;BME280;59039;52.108;19.942;2023-05-10T09:09:34;101022.79;;;16.98;36.27
60920;BME280;59039;52.108;19.942;2023-05-10T09:12:00;101019.65;;;17.00;36.58
60920;BME280;59039;52.108;19.942;2023-05-10T09:14:26;101018.96;;;17.04;38.08
60920;BME280;59039;52.108;19.942;2023-05-10T09:16:51;101017.27;;;17.06;37.04
60920;BME280;59039;52.108;19.942;2023-05-10T09:19:17;101019.77;;;17.08;37.36
60920;BME280;59039;52.108;19.942;2023-05-10T09:21:43;101020.74;;;17.11;35.75
60920;BME280;59039;52.108;19.942;2023-05-10T09:24:08;101020.60;;;17.08;38.12
60920;BME280;59039;52.108;19.942;2023-05-10T09:26:35;101017.63;;;17.09;36.78
60920;BME280;59039;52.108;19.942;2023-05-10T09:29:01;101021.84;;;17.13;36.62
60920;BME280;59039;52.108;19.942;2023-05-10T09:31:46;101020.86;;;17.13;35.24
60920;BME280;59039;52.108;19.942;2023-05-10T09:34:16;101020.71;;;17.06;34.60
60920;BME280;59039;52.108;19.942;2023-05-10T09:36:55;101015.72;;;16.98;36.32
60920;BME280;59039;52.108;19.942;2023-05-10T09:39:30;101016.52;;;16.96;35.94
60920;BME280;59039;52.108;19.942;2023-05-10T09:42:17;101023.20;;;16.92;36.55
60920;BME280;59039;52.108;19.942;2023-05-10T09:44:43;101012.54;;;16.90;36.46
60920;BME280;59039;52.108;19.942;2023-05-10T09:47:17;101019.02;;;16.95;36.00
60920;BME280;59039;52.108;19.942;2023-05-10T09:49:49;101023.40;;;16.93;34.40
60920;BME280;59039;52.108;19.942;2023-05-10T09:52:15;101019.73;;;16.84;35.20
60920;BME280;59039;52.108;19.942;2023-05-10T09:54:45;101019.67;;;16.81;36.46
60920;BME280;59039;52.108;19.942;2023-05-10T09:57:21;101021.39;;;16.81;34.82
60920;BME280;59039;52.108;19.942;2023-05-10T09:59:47;101017.80;;;16.74;34.82
60920;BME280;59039;52.108;19.942;2023-05-10T10:02:13;101011.57;;;16.70;37.06
60920;BME280;59039;52.108;19.942;2023-05-10T10:04:42;101010.80;;;16.74;35.88
60920;BME280;59039;52.108;19.942;2023-05-10T10:07:08;101014.83;;;16.77;35.80
60920;BME280;59039;52.108;19.942;2023-05-10T10:09:34;101014.27;;;16.79;35.24
60920;BME280;59039;52.108;19.942;2023-05-10T10:12:00;101005.02;;;16.75;35.60
60920;BME280;59039;52.108;19.942;2023-05-10T10:14:26;101006.44;;;16.74;35.22
60920;BME280;59039;52.108;19.942;2023-05-10T10:16:55;101002.55;;;16.70;35.08
60920;BME280;59039;52.108;19.942;2023-05-10T10:19:21;101002.48;;;16.65;35.91
60920;BME280;59039;52.108;19.942;2023-05-10T10:21:47;101002.98;;;16.67;36.15
60920;BME280;59039;52.108;19.942;2023-05-10T10:24:13;101001.84;;;16.69;35.69
60920;BME280;59039;52.108;19.942;2023-05-10T10:26:38;101005.05;;;16.72;37.05
60920;BME280;59039;52.108;19.942;2023-05-10T10:34:26;100991.30;;;16.75;34.79
60920;BME280;59039;52.108;19.942;2023-05-10T10:36:52;100987.32;;;16.75;34.96
60920;BME280;59039;52.108;19.942;2023-05-10T10:39:19;100991.05;;;16.73;34.29
60920;BME280;59039;52.108;19.942;2023-05-10T10:41:51;100989.58;;;16.71;34.44
60920;BME280;59039;52.108;19.942;2023-05-10T10:44:23;100988.65;;;16.71;34.28
60920;BME280;59039;52.108;19.942;2023-05-10T10:52:28;100975.02;;;16.67;35.63
60920;BME280;59039;52.108;19.942;2023-05-10T10:57:25;100972.77;;;16.73;37.67
60920;BME280;59039;52.108;19.942;2023-05-10T10:59:50;100974.70;;;16.76;37.33
60920;BME280;59039;52.108;19.942;2023-05-10T11:02:49;100971.95;;;16.81;37.41
60920;BME280;59039;52.108;19.942;2023-05-10T11:05:48;100970.58;;;16.85;35.54
60920;BME280;59039;52.108;19.942;2023-05-10T11:08:26;100964.24;;;16.87;35.96
60920;BME280;59039;52.108;19.942;2023-05-10T11:13:28;100963.05;;;16.91;36.00
60920;BME280;59039;52.108;19.942;2023-05-10T11:15:54;100965.48;;;16.93;35.00
60920;BME280;59039;52.108;19.942;2023-05-10T11:18:21;100958.02;;;16.89;35.01
60920;BME280;59039;52.108;19.942;2023-05-10T11:20:52;100950.27;;;16.88;35.14
60920;BME280;59039;52.108;19.942;2023-05-10T11:23:20;100961.18;;;16.88;35.95
60920;BME280;59039;52.108;19.942;2023-05-10T11:25:45;100955.48;;;16.91;36.05
60920;BME280;59039;52.108;19.942;2023-05-10T11:28:12;100968.46;;;16.94;34.83
60920;BME280;59039;52.108;19.942;2023-05-10T11:30:38;100956.08;;;16.90;34.44
60920;BME280;59039;52.108;19.942;2023-05-10T11:33:05;100961.71;;;16.90;34.98
60920;BME280;59039;52.108;19.942;2023-05-10T11:35:30;100960.61;;;16.92;35.48
60920;BME280;59039;52.108;19.942;2023-05-10T11:37:58;100959.30;;;16.94;35.38
60920;BME280;59039;52.108;19.942;2023-05-10T11:40:23;100958.04;;;16.92;34.82
60920;BME280;59039;52.108;19.942;2023-05-10T11:42:48;100968.69;;;16.93;35.41
60920;BME280;59039;52.108;19.942;2023-05-10T11:45:13;100953.44;;;16.92;35.61
60920;BME280;59039;52.108;19.942;2023-05-10T11:47:39;100948.01;;;16.91;36.13
60920;BME280;59039;52.108;19.942;2023-05-10T11:50:05;100957.40;;;16.96;33.73
60920;BME280;59039;52.108;19.942;2023-05-10T11:52:35;100946.79;;;16.96;34.15
60920;BME280;59039;52.108;19.942;2023-05-10T11:55:00;100938.36;;;16.97;34.36
60920;BME280;59039;52.108;19.942;2023-05-10T11:57:33;100948.02;;;16.99;36.19
60920;BME280;59039;52.108;19.942;2023-05-10T11:59:59;100950.52;;;17.04;35.19
60920;BME280;59039;52.108;19.942;2023-05-10T12:02:25;100945.83;;;17.11;36.63
60920;BME280;59039;52.108;19.942;2023-05-10T12:04:50;100945.93;;;17.15;36.71
60920;BME280;59039;52.108;19.942;2023-05-10T12:07:16;100943.60;;;17.19;36.13
60920;BME280;59039;52.108;19.942;2023-05-10T12:10:02;100939.02;;;17.24;35.00
60920;BME280;59039;52.108;19.942;2023-05-10T12:12:35;100944.67;;;17.28;35.73
60920;BME280;59039;52.108;19.942;2023-05-10T12:15:01;100935.00;;;17.31;36.27
60920;BME280;59039;52.108;19.942;2023-05-10T12:17:27;100937.70;;;17.33;34.50
60920;BME280;59039;52.108;19.942;2023-05-10T12:19:53;100933.73;;;17.34;34.79
60920;BME280;59039;52.108;19.942;2023-05-10T12:22:23;100926.04;;;17.34;35.86
60920;BME280;59039;52.108;19.942;2023-05-10T12:24:50;100921.59;;;17.36;34.73
60920;BME280;59039;52.108;19.942;2023-05-10T12:27:15;100923.42;;;17.39;36.86
60920;BME280;59039;52.108;19.942;2023-05-10T12:29:50;100927.92;;;17.43;35.32
60920;BME280;59039;52.108;19.942;2023-05-10T12:32:15;100928.19;;;17.46;33.89
60920;BME280;59039;52.108;19.942;2023-05-10T12:34:41;100932.63;;;17.49;34.84
60920;BME280;59039;52.108;19.942;2023-05-10T12:37:06;100922.39;;;17.49;36.38
60920;BME280;59039;52.108;19.942;2023-05-10T12:39:41;100916.52;;;17.49;36.37
60920;BME280;59039;52.108;19.942;2023-05-10T12:42:07;100917.80;;;17.50;34.52
60920;BME280;59039;52.108;19.942;2023-05-10T12:44:33;100910.55;;;17.51;36.42
60920;BME280;59039;52.108;19.942;2023-05-10T12:46:58;100911.45;;;17.53;35.96
60920;BME280;59039;52.108;19.942;2023-05-10T12:49:24;100917.98;;;17.56;35.94
60920;BME280;59039;52.108;19.942;2023-05-10T12:51:49;100917.70;;;17.60;35.66
60920;BME280;59039;52.108;19.942;2023-05-10T12:54:14;100914.17;;;17.62;35.15
60920;BME280;59039;52.108;19.942;2023-05-10T12:56:40;100908.31;;;17.61;35.56
60920;BME280;59039;52.108;19.942;2023-05-10T12:59:05;100914.45;;;17.61;35.57
60920;BME280;59039;52.108;19.942;2023-05-10T13:01:30;100915.09;;;17.61;35.83
60920;BME280;59039;52.108;19.942;2023-05-10T13:04:16;100906.35;;;17.59;35.21
60920;BME280;59039;52.108;19.942;2023-05-10T13:06:41;100905.75;;;17.59;35.65
60920;BME280;59039;52.108;19.942;2023-05-10T13:09:06;100912.36;;;17.59;34.74
60920;BME280;59039;52.108;19.942;2023-05-10T13:11:32;100911.55;;;17.60;35.72
60920;BME280;59039;52.108;19.942;2023-05-10T13:14:00;100903.84;;;17.61;36.94
60920;BME280;59039;52.108;19.942;2023-05-10T13:16:27;100905.13;;;17.63;34.86
60920;BME280;59039;52.108;19.942;2023-05-10T13:18:53;100904.69;;;17.65;34.52